Denver, CO

3:01 PM MST on January 24, 2017 (GMT -0700)
San Rafael Neighborhood | | Change Station

Elev 5253 ft 39.75 °N, 104.98 °W | Updated 10 minutes ago

Overcast
Overcast
24.6 °F
Feels Like 25 °F
N
2.2
Wind Variable Wind from NE
Gusts 6.0 mph

Today
High -- | Low -- °F
--% Chance of Precip.
Yesterday
High -- | Low -- °F
Precip. -- in
Pressure 29.68 in
Visibility 7.0 miles
Clouds Overcast 900 ft
Windchill 25 °F
Dew Point 24 °F
Humidity 99%
Rainfall 0.00 in
Snow Depth Not available.
7:14 AM 5:10 PM
Waning Crescent, 9% visible
METAR KBKF 242158Z 03008KT 7SM OVC009 M05/M05 A2962 RMK AO2A SNE39 SLP050 P0000 T10471051
Pressure 29.68 in
Visibility 7.0 miles
Clouds Overcast 900 ft
Windchill 25 °F
Dew Point 24 °F
Humidity 99%
Rainfall 0.00 in
Snow Depth Not available.
7:14 AM 5:10 PM
Waning Crescent, 9% visible
METAR KBKF 242158Z 03008KT 7SM OVC009 M05/M05 A2962 RMK AO2A SNE39 SLP050 P0000 T10471051

Get Your Daily Forecast Email!

Thanks for signing up!

Be on the lookout for a verification email in your inbox.

You'll start receiving the daily forecast at 8 AM.

×

10-Day Weather Forecast

Almanac

Astronomy

Jan. 24, 2017 Rise Set
Actual Time
Civil Twilight
Nautical Twilight
Astronomical Twilight
Moon
Length of Visible Light
Length of Day
Tomorrow will be .
, % of the Moon is Illuminated

Today's Extremes

State Highs State Lows

Community

WunderPhotos

Upload Photos

1,962,540 photos uploaded!

WunderBlog® & News

Nearby

Air Quality

  Air Quality AQ Index Pollutant
Not available.

Snow Depth

Station Depth Elevation

Earthquake Activity

City Distance Mag. Time & Date
Minimum magnitude displayed is 2.5.

Coastal Water Temperatures

Place Temperature

Stations

Nearby Weather Stations

Station Location Temp. Windchill Dew Point Humidity Wind Precip. Elev Updated Type
                   

Watches & Warnings

There are currently no watches in effect.